首页
METAR-TAF:

METAR-TAF

机场 :

北干巴魯, 印度尼西亚

纬度: 00-28N, 经度: 101-27E, 海拔: 31米

当前天气观测

该预报发布于47分钟前的06:00 UTC
风速6节,风向西转西北
温度 34°C
湿度 60%
气压 1006 hPa
能见度10公里或以上
散云层高于1200英尺

METAR: WIBB 220600Z 30006KT 9999 SCT012 34/25 Q1006

时间: 13:47 (06:47 UTC)


TAF: 丢失

超过4000个机场的气象观测和天气预报(METAR&TAF报告)。

可查询的气象台以黄色和红色小点在地图上表示。

将鼠标移到小点上方,可查看气象台名称。

然后点击查看天气观测和预报。

如需切换地图:点击带黑十字的绿色按钮放大地图;点击带横线的绿色按钮缩小地图;或者点击绿色箭头查看邻近地区的地图。


METAR-TAF: